Time;durP1;ratioP1;P1;durP2;ratioP2;P2;SDS_P1;SDS_P2;PMS_P1;PMS_P2;Temp;Humidity;BMP_temperature;BMP_pressure;BME280_temperature;BME280_humidity;BME280_pressure;Samples;Min_cycle;Max_cycle;Signal;HPM_P1;HPM_P2
2021/11/11 00:01:51;;;;;;;51.83;31.35;;;11.50;81.00;;;;;;4976811;28;92905;-75
2021/11/11 00:04:20;;;;;;;48.28;31.42;;;11.50;80.90;;;;;;4976335;28;92505;-75
2021/11/11 00:06:48;;;;;;;47.50;32.03;;;11.50;80.90;;;;;;4976126;28;95931;-75
2021/11/11 00:09:15;;;;;;;45.95;30.20;;;11.50;80.80;;;;;;4977747;28;92924;-75
2021/11/11 00:11:43;;;;;;;44.13;30.65;;;11.50;80.80;;;;;;4977253;28;101293;-75
2021/11/11 00:14:10;;;;;;;46.22;31.55;;;11.50;80.80;;;;;;4977821;28;92789;-75
2021/11/11 00:16:37;;;;;;;45.75;31.80;;;11.50;80.70;;;;;;4975979;28;95478;-75
2021/11/11 00:19:05;;;;;;;47.00;31.73;;;11.50;80.70;;;;;;4977294;28;95325;-75
2021/11/11 00:21:32;;;;;;;44.25;30.52;;;11.50;80.70;;;;;;4977128;28;93186;-75
2021/11/11 00:23:59;;;;;;;44.67;30.50;;;11.50;80.80;;;;;;4976589;28;92406;-75
2021/11/11 00:26:27;;;;;;;52.05;31.77;;;11.50;80.60;;;;;;4975709;28;94123;-75
2021/11/11 00:28:55;;;;;;;48.92;31.45;;;11.50;80.60;;;;;;4975870;28;92937;-75
2021/11/11 00:31:22;;;;;;;48.35;31.42;;;11.50;80.40;;;;;;4975899;28;92569;-75
2021/11/11 00:33:50;;;;;;;51.63;32.50;;;11.50;80.60;;;;;;4977717;28;91775;-75
2021/11/11 00:36:16;;;;;;;49.15;30.27;;;11.50;80.50;;;;;;4976826;28;93035;-75
2021/11/11 00:38:44;;;;;;;47.25;30.83;;;11.50;80.40;;;;;;4977117;28;92822;-75
2021/11/11 00:41:11;;;;;;;50.05;30.17;;;11.50;80.40;;;;;;4976049;28;94817;-75
2021/11/11 00:43:38;;;;;;;39.75;27.80;;;11.50;80.30;;;;;;4976483;28;92599;-75
2021/11/11 00:46:05;;;;;;;47.15;29.70;;;11.50;80.30;;;;;;4975847;28;93158;-75
2021/11/11 00:48:32;;;;;;;39.05;26.75;;;11.50;80.20;;;;;;4975233;28;94033;-75
2021/11/11 00:51:00;;;;;;;44.00;28.27;;;11.50;80.10;;;;;;4975701;28;92527;-75
2021/11/11 00:53:27;;;;;;;37.15;25.35;;;11.50;80.30;;;;;;4975605;28;92451;-75
2021/11/11 00:55:53;;;;;;;39.22;27.08;;;11.50;80.20;;;;;;4975520;28;95769;-75
2021/11/11 00:58:25;;;;;;;40.13;25.38;;;11.50;80.10;;;;;;4975557;28;95329;-75
2021/11/11 01:00:53;;;;;;;41.05;26.70;;;11.50;80.10;;;;;;4975744;28;92490;-75
2021/11/11 01:03:25;;;;;;;38.47;26.35;;;11.50;80.10;;;;;;4976950;28;93092;-75
2021/11/11 01:05:52;;;;;;;37.33;26.98;;;11.40;80.40;;;;;;4958603;28;98348;-75
2021/11/11 01:08:21;;;;;;;38.45;25.23;;;11.40;80.80;;;;;;4975151;28;96491;-75
2021/11/11 01:10:48;;;;;;;45.38;26.05;;;11.40;80.10;;;;;;4975248;28;92452;-75
2021/11/11 01:13:18;;;;;;;41.92;25.80;;;11.40;80.00;;;;;;4976733;28;92478;-75
2021/11/11 01:15:45;;;;;;;41.08;25.65;;;11.40;80.10;;;;;;4976120;28;93063;-75
2021/11/11 01:18:12;;;;;;;37.92;23.98;;;11.40;79.80;;;;;;4958977;28;94185;-75
2021/11/11 01:20:39;;;;;;;40.20;24.40;;;11.40;79.60;;;;;;4974779;28;92525;-75
2021/11/11 01:23:06;;;;;;;38.72;23.88;;;11.40;79.50;;;;;;4976630;28;103463;-75
2021/11/11 01:25:37;;;;;;;40.67;25.13;;;11.40;79.60;;;;;;4976365;28;92875;-75
2021/11/11 01:28:06;;;;;;;41.30;24.00;;;11.40;79.40;;;;;;4974946;28;95479;-75
2021/11/11 01:30:37;;;;;;;37.10;23.60;;;11.40;79.40;;;;;;4973882;28;95201;-75
2021/11/11 01:33:25;;;;;;;34.88;22.73;;;11.40;79.20;;;;;;4975006;28;92484;-75
2021/11/11 01:35:53;;;;;;;39.50;24.23;;;11.40;79.30;;;;;;4958559;28;95830;-75
2021/11/11 01:38:28;;;;;;;39.28;23.48;;;11.40;79.30;;;;;;4974597;28;95412;-75
2021/11/11 01:40:57;;;;;;;36.28;23.00;;;11.40;79.30;;;;;;4974781;28;92717;-75
2021/11/11 01:43:28;;;;;;;38.10;24.17;;;11.40;79.40;;;;;;4942922;28;92489;-75
2021/11/11 01:45:59;;;;;;;36.45;23.75;;;11.40;79.20;;;;;;4974560;28;95493;-75
2021/11/11 01:48:27;;;;;;;37.45;25.30;;;11.40;79.40;;;;;;4974929;28;93971;-75
2021/11/11 01:51:00;;;;;;;35.93;23.93;;;11.30;79.60;;;;;;4974835;28;92809;-75
2021/11/11 01:53:31;;;;;;;37.65;25.20;;;11.30;79.50;;;;;;4974676;28;92510;-75
2021/11/11 01:55:58;;;;;;;43.08;25.60;;;11.30;79.80;;;;;;4974668;28;95429;-75
2021/11/11 01:58:26;;;;;;;37.88;25.50;;;11.30;79.70;;;;;;4974424;28;97626;-75
2021/11/11 02:00:58;;;;;;;43.53;26.13;;;11.30;79.90;;;;;;4974474;28;93028;-75
2021/11/11 02:03:38;;;;;;;38.55;26.25;;;11.30;79.90;;;;;;4974511;28;92995;-75
2021/11/11 02:06:12;;;;;;;38.95;24.42;;;11.30;79.80;;;;;;4974480;28;95417;-75
2021/11/11 02:08:55;;;;;;;40.53;27.33;;;11.30;79.80;;;;;;4974384;28;95630;-75
2021/11/11 02:11:31;;;;;;;45.05;24.98;;;11.30;79.80;;;;;;4974471;28;92659;-75
2021/11/11 02:13:59;;;;;;;42.60;26.23;;;11.30;79.80;;;;;;4974679;28;91725;-75
2021/11/11 02:16:26;;;;;;;40.97;26.20;;;11.30;79.60;;;;;;4974291;28;95494;-75
2021/11/11 02:18:53;;;;;;;41.70;28.17;;;11.30;79.80;;;;;;4957857;28;95187;-75
2021/11/11 02:21:20;;;;;;;46.22;28.60;;;11.40;79.80;;;;;;4956998;28;96928;-75
2021/11/11 02:23:54;;;;;;;45.20;28.40;;;11.40;79.80;;;;;;4974190;28;92872;-75
2021/11/11 02:26:45;;;;;;;48.28;26.45;;;11.40;79.60;;;;;;4973891;28;93943;-75
2021/11/11 02:29:20;;;;;;;44.42;26.70;;;11.40;79.60;;;;;;4973974;28;95605;-75
2021/11/11 02:31:47;;;;;;;43.83;26.95;;;11.40;79.70;;;;;;4973993;28;92442;-75
2021/11/11 02:34:20;;;;;;;42.10;26.02;;;11.40;79.70;;;;;;4974260;28;92512;-75
2021/11/11 02:37:02;;;;;;;46.85;27.02;;;11.40;79.60;;;;;;4973898;28;95618;-75
2021/11/11 02:40:05;;;;;;;43.33;25.80;;;11.40;79.50;;;;;;4974342;28;95427;-75
2021/11/11 02:42:40;;;;;;;42.00;25.70;;;11.30;79.60;;;;;;4975385;28;92484;-75
2021/11/11 02:45:17;;;;;;;40.33;25.92;;;11.30;79.70;;;;;;4958339;28;92780;-75
2021/11/11 02:47:47;;;;;;;;;;;11.30;79.90;;;;;;4972156;28;97764;-75
2021/11/11 02:50:16;;;;;;;41.08;24.50;;;11.20;80.10;;;;;;4975363;28;97048;-75
2021/11/11 02:52:51;;;;;;;35.95;26.45;;;11.20;80.10;;;;;;4973921;28;92467;-75
2021/11/11 02:55:18;;;;;;;43.40;26.65;;;11.30;80.00;;;;;;4973985;28;92588;-75
2021/11/11 02:57:48;;;;;;;37.42;24.38;;;11.30;79.70;;;;;;4973393;28;95377;-75
2021/11/11 03:00:17;;;;;;;38.58;26.27;;;11.30;79.60;;;;;;4974926;28;92769;-75
2021/11/11 03:02:49;;;;;;;41.10;25.92;;;11.30;79.50;;;;;;4973668;28;92514;-75
2021/11/11 03:05:28;;;;;;;41.97;27.63;;;11.40;79.40;;;;;;4974246;28;91833;-75
2021/11/11 03:07:56;;;;;;;43.73;27.23;;;11.40;79.40;;;;;;4957497;28;95169;-75
2021/11/11 03:10:27;;;;;;;41.08;27.98;;;11.40;79.20;;;;;;4973760;28;95066;-75
2021/11/11 03:12:57;;;;;;;44.38;27.17;;;11.40;79.20;;;;;;4972638;28;95470;-75
2021/11/11 03:15:28;;;;;;;44.22;27.15;;;11.40;79.30;;;;;;4958024;28;92571;-75
2021/11/11 03:17:56;;;;;;;39.08;26.77;;;11.40;79.10;;;;;;4973479;28;94099;-75
2021/11/11 03:20:25;;;;;;;40.38;26.75;;;11.40;79.30;;;;;;4973361;28;95958;-75
2021/11/11 03:22:53;;;;;;;44.15;26.85;;;11.40;79.30;;;;;;4973244;28;92543;-75
2021/11/11 03:25:25;;;;;;;42.65;26.85;;;11.40;79.30;;;;;;4973709;28;92794;-75
2021/11/11 03:27:53;;;;;;;44.70;27.33;;;11.50;79.40;;;;;;4973259;28;95222;-75
2021/11/11 03:30:25;;;;;;;43.70;27.60;;;11.50;79.50;;;;;;4973685;28;95443;-75
2021/11/11 03:32:54;;;;;;;43.72;27.48;;;11.50;79.50;;;;;;4974567;28;92704;-75
2021/11/11 03:35:25;;;;;;;42.45;27.50;;;11.50;79.60;;;;;;4957808;28;92542;-75
2021/11/11 03:37:54;;;;;;;46.17;27.25;;;11.50;79.70;;;;;;4973265;28;95393;-75
2021/11/11 03:40:29;;;;;;;46.13;29.40;;;11.50;79.70;;;;;;4973238;28;97423;-75
2021/11/11 03:42:59;;;;;;;42.33;27.70;;;11.40;79.80;;;;;;4972881;28;92365;-75
2021/11/11 03:45:33;;;;;;;43.40;28.40;;;11.50;79.80;;;;;;4973423;28;92540;-75
2021/11/11 03:48:00;;;;;;;47.05;28.55;;;11.50;79.90;;;;;;4974409;28;92994;-75
2021/11/11 03:50:30;;;;;;;43.72;28.08;;;11.50;79.90;;;;;;4973251;28;95100;-75
2021/11/11 03:52:58;;;;;;;52.47;28.75;;;11.50;79.90;;;;;;4972998;28;92471;-75
2021/11/11 03:55:26;;;;;;;45.55;28.70;;;11.50;79.90;;;;;;4973434;28;91820;-75
2021/11/11 03:57:56;;;;;;;45.35;29.88;;;11.50;80.00;;;;;;4972785;28;95426;-75
2021/11/11 04:00:25;;;;;;;42.28;27.50;;;11.50;80.10;;;;;;4976025;28;95077;-75
2021/11/11 04:02:58;;;;;;;48.42;29.27;;;11.50;80.10;;;;;;4975099;28;94866;-75
2021/11/11 04:05:25;;;;;;;43.00;27.98;;;11.50;80.20;;;;;;4977473;28;92465;-75
2021/11/11 04:07:55;;;;;;;45.15;28.15;;;11.50;80.30;;;;;;4975843;28;95809;-75
2021/11/11 04:10:22;;;;;;;42.33;29.23;;;11.50;81.00;;;;;;4960063;28;94201;-75
2021/11/11 04:13:06;;;;;;;42.57;29.23;;;11.50;80.50;;;;;;4976043;28;92490;-75
2021/11/11 04:15:34;;;;;;;47.42;29.10;;;11.50;80.70;;;;;;4960264;28;92537;-75
2021/11/11 04:18:01;;;;;;;45.30;29.73;;;11.50;80.60;;;;;;4975834;28;94422;-75
2021/11/11 04:20:29;;;;;;;40.63;28.88;;;11.50;80.50;;;;;;4976356;28;95800;-75
2021/11/11 04:22:57;;;;;;;40.15;27.45;;;11.50;80.50;;;;;;4975915;28;92959;-75
2021/11/11 04:28:17;;;;;;;46.17;27.65;;;11.40;80.50;;;;;;4975591;28;96418;-75
2021/11/11 04:30:47;;;;;;;40.97;26.02;;;11.40;80.40;;;;;;4975811;28;97576;-75
2021/11/11 04:33:15;;;;;;;39.97;27.73;;;11.40;80.40;;;;;;4975679;28;92796;-75
2021/11/11 04:35:47;;;;;;;42.88;28.65;;;11.40;80.30;;;;;;4975927;28;92548;-75
2021/11/11 04:49:18;;;;;;;43.72;26.92;;;11.40;80.10;;;;;;4975338;28;95457;-75
2021/11/11 05:04:59;;;;;;;45.15;27.52;;;11.40;80.20;;;;;;4961583;28;93298;-75
2021/11/11 05:07:26;;;;;;;43.63;26.95;;;11.30;80.40;;;;;;4959348;28;92620;-75
2021/11/11 05:09:53;;;;;;;42.72;27.98;;;11.30;80.50;;;;;;4958686;28;95469;-75
2021/11/11 05:12:21;;;;;;;43.25;27.25;;;11.30;80.60;;;;;;4975309;28;94485;-75
2021/11/11 05:14:49;;;;;;;41.80;28.02;;;11.30;80.70;;;;;;4975351;28;92405;-74
2021/11/11 05:17:22;;;;;;;42.15;26.52;;;11.30;81.60;;;;;;4975018;28;92508;-74
2021/11/11 05:19:50;;;;;;;51.65;29.65;;;11.30;81.20;;;;;;4973771;28;98318;-75
2021/11/11 05:22:18;;;;;;;47.95;28.45;;;11.20;81.40;;;;;;4958671;28;97808;-74
2021/11/11 05:24:47;;;;;;;45.10;30.42;;;11.20;81.50;;;;;;4975198;28;92550;-75
2021/11/11 05:27:15;;;;;;;48.58;30.23;;;11.20;81.90;;;;;;4976306;28;92478;-74
2021/11/11 05:29:43;;;;;;;50.58;29.58;;;11.20;81.80;;;;;;4974964;28;95499;-75
2021/11/11 05:32:10;;;;;;;49.80;29.98;;;11.20;81.80;;;;;;4958482;28;95718;-75
2021/11/11 05:34:38;;;;;;;49.90;29.58;;;11.20;82.00;;;;;;4974886;28;92431;-75
2021/11/11 05:37:05;;;;;;;45.03;28.42;;;11.20;82.00;;;;;;4975055;28;92004;-75
2021/11/11 05:39:33;;;;;;;47.33;28.70;;;11.20;82.30;;;;;;4974750;28;95722;-74
2021/11/11 05:42:01;;;;;;;49.95;29.60;;;11.10;82.40;;;;;;4974563;28;95624;-74
2021/11/11 05:44:28;;;;;;;47.22;29.45;;;11.10;82.40;;;;;;4973141;28;94863;-74
2021/11/11 05:46:56;;;;;;;49.22;32.22;;;11.20;82.40;;;;;;4976046;28;92531;-75
2021/11/11 05:49:24;;;;;;;42.35;29.08;;;11.20;82.40;;;;;;4958587;28;92884;-74
2021/11/11 05:51:52;;;;;;;58.03;33.08;;;11.20;82.90;;;;;;4974632;28;94130;-74
2021/11/11 05:54:19;;;;;;;48.75;28.48;;;11.20;82.40;;;;;;4974637;28;92493;-74
2021/11/11 05:56:47;;;;;;;47.83;30.73;;;11.20;82.30;;;;;;4974697;28;92547;-74
2021/11/11 05:59:16;;;;;;;44.05;28.75;;;11.20;83.00;;;;;;4974322;28;94266;-75
2021/11/11 06:01:43;;;;;;;46.97;30.13;;;11.20;82.20;;;;;;4974538;28;95663;-74
2021/11/11 06:04:10;;;;;;;50.70;32.08;;;11.20;82.20;;;;;;4974248;28;92569;-75
2021/11/11 06:06:44;;;;;;;43.65;30.90;;;11.20;82.20;;;;;;4974481;28;92524;-75
2021/11/11 06:09:11;;;;;;;47.30;30.70;;;11.20;82.10;;;;;;4972866;28;96498;-75
2021/11/11 06:11:38;;;;;;;48.83;29.80;;;11.20;82.10;;;;;;4975621;28;95329;-74
2021/11/11 06:14:05;;;;;;;48.35;30.58;;;11.20;82.00;;;;;;4974283;28;92563;-74
2021/11/11 06:16:32;;;;;;;41.05;27.08;;;11.20;81.80;;;;;;4976127;28;92557;-75
2021/11/11 06:18:59;;;;;;;48.42;30.60;;;11.20;82.10;;;;;;4975732;28;92832;-75
2021/11/11 06:21:26;;;;;;;45.78;30.42;;;11.30;82.20;;;;;;4956981;28;95370;-75
2021/11/11 06:23:54;;;;;;;61.25;33.13;;;11.20;82.00;;;;;;4973923;28;92639;-75
2021/11/11 06:26:25;;;;;;;43.30;26.63;;;11.30;82.00;;;;;;4974625;28;91680;-75
2021/11/11 06:28:56;;;;;;;45.25;30.20;;;11.20;82.00;;;;;;4958553;28;95953;-75
2021/11/11 06:31:23;;;;;;;49.95;31.20;;;11.30;82.30;;;;;;4989677;28;95360;-75
2021/11/11 06:33:50;;;;;;;51.17;28.73;;;11.30;82.20;;;;;;4991903;28;94995;-75
2021/11/11 06:36:17;;;;;;;49.22;30.25;;;11.20;82.20;;;;;;4990648;28;92963;-75
2021/11/11 06:38:45;;;;;;;54.47;33.28;;;11.20;82.30;;;;;;4995316;28;93104;-75
2021/11/11 06:41:12;;;;;;;51.85;31.25;;;11.20;82.30;;;;;;4994542;28;92922;-75
2021/11/11 06:43:39;;;;;;;48.72;31.42;;;11.20;82.40;;;;;;4994464;28;92375;-75
2021/11/11 06:46:07;;;;;;;48.08;31.50;;;11.20;82.50;;;;;;4994131;28;92782;-75
2021/11/11 06:48:35;;;;;;;49.17;31.05;;;11.30;82.60;;;;;;4994733;28;93199;-75
2021/11/11 06:51:03;;;;;;;54.88;31.85;;;11.30;82.80;;;;;;5010955;28;92903;-75
2021/11/11 06:53:30;;;;;;;53.28;31.05;;;11.30;82.80;;;;;;4995031;28;92429;-75
2021/11/11 06:55:58;;;;;;;52.30;31.05;;;11.20;82.80;;;;;;4995287;28;92527;-75
2021/11/11 06:58:25;;;;;;;55.55;31.65;;;11.30;83.10;;;;;;4993675;28;95456;-75
2021/11/11 07:00:58;;;;;;;57.85;30.98;;;11.30;83.10;;;;;;4993373;28;96751;-75
2021/11/11 07:03:27;;;;;;;46.78;30.60;;;11.30;83.10;;;;;;4993480;28;92588;-75
2021/11/11 07:05:54;;;;;;;50.75;29.90;;;11.30;83.00;;;;;;4993818;28;93156;-75
2021/11/11 07:08:21;;;;;;;43.20;28.40;;;11.30;82.90;;;;;;4991864;28;93066;-75
2021/11/11 07:10:50;;;;;;;46.45;30.42;;;11.40;82.90;;;;;;4994911;28;92873;-75
2021/11/11 07:13:18;;;;;;;49.22;29.60;;;11.40;82.80;;;;;;4994574;28;92342;-75
2021/11/11 07:15:46;;;;;;;45.35;28.60;;;11.40;82.90;;;;;;4995200;28;91636;-76
2021/11/11 07:18:13;;;;;;;47.28;28.52;;;11.40;82.90;;;;;;4992907;28;106643;-76
2021/11/11 07:20:44;;;;;;;45.22;27.13;;;11.40;83.10;;;;;;4994446;28;92921;-75
2021/11/11 07:23:12;;;;;;;47.58;27.30;;;11.40;83.00;;;;;;4992116;28;94942;-76
2021/11/11 07:25:39;;;;;;;43.58;27.67;;;11.40;83.00;;;;;;4994487;28;92472;-75
2021/11/11 07:28:06;;;;;;;51.83;31.02;;;11.50;83.00;;;;;;4994645;28;93003;-75
2021/11/11 07:30:34;;;;;;;49.92;29.58;;;11.50;83.10;;;;;;4992017;28;94186;-75
2021/11/11 07:33:01;;;;;;;51.75;29.30;;;11.50;83.40;;;;;;4993568;28;93236;-75
2021/11/11 07:35:28;;;;;;;52.00;27.23;;;11.50;83.10;;;;;;4997840;28;92512;-75
2021/11/11 07:37:55;;;;;;;49.08;29.25;;;11.50;83.10;;;;;;4997653;28;105552;-75
2021/11/11 07:40:25;;;;;;;46.90;27.23;;;11.50;83.40;;;;;;4997028;28;92800;-75
2021/11/11 07:42:52;;;;;;;42.55;26.35;;;11.50;83.80;;;;;;4998050;28;92457;-75
2021/11/11 07:45:32;;;;;;;54.10;29.23;;;11.50;83.70;;;;;;4996645;28;92471;-75
2021/11/11 07:48:01;;;;;;;46.05;27.85;;;11.50;83.80;;;;;;4994896;28;98178;-76
2021/11/11 07:50:32;;;;;;;47.00;27.98;;;11.60;83.70;;;;;;4997416;28;95291;-75
2021/11/11 07:53:00;;;;;;;41.15;26.42;;;11.60;83.50;;;;;;4996952;28;92592;-75
2021/11/11 07:55:29;;;;;;;45.20;26.70;;;11.60;83.30;;;;;;4997574;28;92514;-75
2021/11/11 07:57:57;;;;;;;49.60;28.42;;;11.60;83.30;;;;;;4997803;28;92964;-75
2021/11/11 08:00:24;;;;;;;41.25;26.63;;;11.60;83.40;;;;;;4997520;28;92953;-75
2021/11/11 08:02:51;;;;;;;41.17;25.42;;;11.70;83.30;;;;;;4997826;28;92588;-75
2021/11/11 08:05:19;;;;;;;41.10;26.65;;;11.70;83.30;;;;;;4998201;28;91779;-75
2021/11/11 08:07:48;;;;;;;43.70;27.35;;;11.70;83.00;;;;;;4995949;28;95809;-75
2021/11/11 08:10:17;;;;;;;48.03;27.02;;;11.70;82.90;;;;;;4997301;28;92520;-75
2021/11/11 08:12:44;;;;;;;45.38;27.88;;;11.70;82.90;;;;;;4996102;28;94812;-75
2021/11/11 08:15:12;;;;;;;49.85;29.00;;;11.70;82.90;;;;;;4996379;28;92601;-75
2021/11/11 08:17:39;;;;;;;44.30;28.10;;;11.80;82.90;;;;;;4997530;28;92962;-75
2021/11/11 08:20:08;;;;;;;49.20;28.38;;;11.80;82.80;;;;;;4997337;28;92934;-75
2021/11/11 08:22:35;;;;;;;44.25;27.80;;;11.80;82.40;;;;;;4997254;28;93038;-75
2021/11/11 08:25:07;;;;;;;47.97;28.60;;;11.90;82.40;;;;;;4997360;28;92458;-75
2021/11/11 08:27:36;;;;;;;43.45;26.25;;;11.90;82.50;;;;;;4997053;28;93056;-75
2021/11/11 08:30:05;;;;;;;45.92;27.33;;;11.90;82.30;;;;;;4997200;28;92855;-75
2021/11/11 08:32:33;;;;;;;39.70;26.80;;;12.00;82.30;;;;;;4996948;28;92422;-75
2021/11/11 08:35:00;;;;;;;37.17;24.77;;;12.00;82.90;;;;;;4995963;28;92530;-75
2021/11/11 08:37:28;;;;;;;43.95;26.88;;;12.00;82.00;;;;;;4994657;28;95476;-75
2021/11/11 08:39:55;;;;;;;39.17;25.88;;;12.10;82.10;;;;;;4979212;28;95349;-75
2021/11/11 08:42:22;;;;;;;40.55;26.13;;;12.10;82.70;;;;;;4997172;28;92836;-75
2021/11/11 08:44:49;;;;;;;43.47;27.00;;;12.10;82.30;;;;;;4993990;28;92629;-75
2021/11/11 08:47:19;;;;;;;48.13;27.23;;;12.10;82.00;;;;;;4995399;28;95623;-75
2021/11/11 08:49:51;;;;;;;43.03;26.00;;;12.10;82.00;;;;;;4995271;28;95237;-75
2021/11/11 08:52:19;;;;;;;52.65;28.17;;;12.10;82.00;;;;;;4996747;28;92383;-75
2021/11/11 08:54:46;;;;;;;48.92;27.95;;;12.10;82.10;;;;;;4996372;28;102909;-75
2021/11/11 08:57:13;;;;;;;42.50;28.33;;;12.10;81.90;;;;;;4996322;28;94175;-75
2021/11/11 08:59:55;;;;;;;37.65;26.25;;;12.10;82.00;;;;;;4996555;28;93025;-75
2021/11/11 09:02:23;;;;;;;40.80;26.92;;;12.10;81.90;;;;;;4994212;28;96503;-75
2021/11/11 09:04:52;;;;;;;46.80;28.80;;;12.10;81.90;;;;;;4996374;28;92476;-75
2021/11/11 09:07:19;;;;;;;37.47;25.05;;;12.20;81.70;;;;;;4996507;28;93129;-75
2021/11/11 09:09:46;;;;;;;39.40;26.20;;;12.30;81.50;;;;;;4996394;28;92464;-75
2021/11/11 09:12:14;;;;;;;39.10;25.20;;;12.40;81.20;;;;;;4996658;28;92436;-75
2021/11/11 09:14:41;;;;;;;39.58;24.92;;;12.40;80.90;;;;;;4996392;28;92524;-75
2021/11/11 09:17:09;;;;;;;38.60;23.52;;;12.50;81.30;;;;;;4996484;28;93250;-75
2021/11/11 09:19:36;;;;;;;36.25;23.92;;;12.50;80.80;;;;;;4994796;28;100838;-75
2021/11/11 09:22:04;;;;;;;37.70;23.50;;;12.60;80.50;;;;;;4996249;28;92423;-75
2021/11/11 09:24:31;;;;;;;41.17;24.55;;;12.60;80.40;;;;;;4996620;28;92632;-75
2021/11/11 09:26:58;;;;;;;35.22;25.25;;;12.70;80.30;;;;;;4994711;28;95673;-75
2021/11/11 09:29:25;;;;;;;36.38;23.80;;;12.70;80.00;;;;;;4996330;28;95245;-75
2021/11/11 09:31:52;;;;;;;33.53;23.02;;;12.80;80.00;;;;;;4995959;28;92994;-75
2021/11/11 09:34:20;;;;;;;35.00;24.42;;;12.90;79.60;;;;;;4996315;28;92410;-75
2021/11/11 09:36:47;;;;;;;35.33;24.35;;;12.90;79.40;;;;;;4995609;28;93002;-75
2021/11/11 09:39:14;;;;;;;41.58;25.15;;;13.00;79.10;;;;;;4996183;28;92776;-76
2021/11/11 09:41:41;;;;;;;36.50;23.80;;;13.10;79.00;;;;;;4994650;28;92457;-75
2021/11/11 09:44:09;;;;;;;35.25;25.25;;;13.10;79.00;;;;;;4995708;28;91694;-75
2021/11/11 09:46:37;;;;;;;32.58;25.35;;;13.10;78.90;;;;;;4995761;28;94745;-76
2021/11/11 09:49:05;;;;;;;33.90;24.83;;;13.20;79.00;;;;;;4994343;28;94143;-75
2021/11/11 09:51:32;;;;;;;37.13;25.90;;;13.20;79.00;;;;;;4993725;28;95179;-75
2021/11/11 09:59:32;;;;;;;36.50;24.65;;;13.30;78.80;;;;;;4996056;28;92927;-75
2021/11/11 10:02:01;;;;;;;35.95;25.98;;;13.30;79.00;;;;;;5010585;28;93151;-75
2021/11/11 10:04:28;;;;;;;40.17;27.85;;;13.30;79.20;;;;;;4995890;28;92548;-75
2021/11/11 10:06:56;;;;;;;41.40;27.17;;;13.40;79.70;;;;;;4994091;28;94117;-75
2021/11/11 10:09:25;;;;;;;42.45;28.20;;;13.40;78.90;;;;;;4995894;28;92959;-75
2021/11/11 10:12:02;;;;;;;41.63;29.02;;;13.40;79.00;;;;;;4995113;28;92427;-75
2021/11/11 10:14:36;;;;;;;44.47;28.98;;;13.40;79.00;;;;;;4995511;28;92529;-75
2021/11/11 10:17:04;;;;;;;42.00;29.63;;;13.40;78.80;;;;;;4994164;28;95619;-75
2021/11/11 10:19:39;;;;;;;48.25;29.95;;;13.40;78.80;;;;;;4993903;28;97951;-75
2021/11/11 10:22:10;;;;;;;43.08;29.52;;;13.50;78.80;;;;;;4995342;28;92424;-75
2021/11/11 10:24:49;;;;;;;41.50;28.38;;;13.50;78.90;;;;;;4995370;28;92330;-76
2021/11/11 10:27:42;;;;;;;42.58;30.67;;;13.50;78.70;;;;;;4994191;28;93293;-75
2021/11/11 10:30:21;;;;;;;40.13;29.60;;;13.50;78.70;;;;;;4995312;28;92902;-75
2021/11/11 10:32:53;;;;;;;39.10;28.85;;;13.50;79.30;;;;;;4995012;28;92531;-75
2021/11/11 10:35:26;;;;;;;41.08;29.73;;;13.60;78.80;;;;;;4995729;28;94322;-75
2021/11/11 10:38:00;;;;;;;42.00;29.67;;;13.50;78.80;;;;;;4994774;28;93008;-75
2021/11/11 10:40:40;;;;;;;42.42;28.45;;;13.50;78.80;;;;;;4994699;28;92978;-75
2021/11/11 10:43:13;;;;;;;44.70;31.00;;;13.60;78.80;;;;;;4993306;28;94891;-75
2021/11/11 10:45:45;;;;;;;43.38;32.03;;;13.60;78.60;;;;;;4995555;28;93002;-75
2021/11/11 10:48:15;;;;;;;40.40;30.00;;;13.60;78.50;;;;;;4995210;28;93088;-75
2021/11/11 10:50:47;;;;;;;44.60;31.17;;;13.70;78.50;;;;;;4995105;28;92661;-75
2021/11/11 10:53:19;;;;;;;45.05;34.10;;;13.60;78.30;;;;;;4995307;28;92416;-75
2021/11/11 10:55:59;;;;;;;47.43;32.10;;;13.60;78.40;;;;;;4994529;28;93285;-75
2021/11/11 10:58:32;;;;;;;49.60;32.80;;;13.70;78.30;;;;;;4994919;28;93035;-75
2021/11/11 11:01:11;;;;;;;50.03;33.25;;;13.60;78.20;;;;;;4994965;28;92813;-76
2021/11/11 11:03:45;;;;;;;44.63;32.13;;;13.60;78.20;;;;;;4993296;28;92420;-75
2021/11/11 11:06:17;;;;;;;44.55;32.40;;;13.60;78.50;;;;;;4994597;28;92461;-75
2021/11/11 11:08:50;;;;;;;53.05;35.05;;;13.60;78.40;;;;;;4992922;28;95503;-75
2021/11/11 11:11:23;;;;;;;53.13;34.83;;;13.60;78.20;;;;;;4993553;28;95313;-75
2021/11/11 11:13:54;;;;;;;;;;;13.60;78.20;;;;;;4995251;28;92487;-75
2021/11/11 11:16:27;;;;;;;46.28;31.48;;;13.50;78.00;;;;;;4995405;28;92459;-75
2021/11/11 11:19:03;;;;;;;51.75;34.45;;;13.40;78.70;;;;;;4990393;28;94650;-75
2021/11/11 11:21:36;;;;;;;50.58;34.90;;;13.40;78.80;;;;;;4992449;28;94044;-75
2021/11/11 11:24:17;;;;;;;53.50;36.28;;;13.40;78.70;;;;;;4993183;28;94017;-75
2021/11/11 11:26:48;;;;;;;51.88;35.08;;;13.50;78.80;;;;;;4993602;28;91761;-75
2021/11/11 11:29:36;;;;;;;48.42;33.58;;;13.50;78.70;;;;;;4994391;28;92459;-76
2021/11/11 11:32:07;;;;;;;52.08;34.97;;;13.60;78.50;;;;;;4991931;28;95712;-75
2021/11/11 11:34:43;;;;;;;52.95;35.85;;;13.50;78.50;;;;;;4992657;28;94810;-75
2021/11/11 11:37:13;;;;;;;47.25;32.85;;;13.60;78.50;;;;;;4993603;28;92554;-75
2021/11/11 11:39:40;;;;;;;50.90;34.75;;;13.60;78.40;;;;;;4993967;28;93072;-75
2021/11/11 11:42:11;;;;;;;55.50;34.83;;;13.60;78.30;;;;;;4992882;28;94425;-75
2021/11/11 11:44:53;;;;;;;56.72;35.70;;;13.60;78.20;;;;;;4994206;28;92879;-75
2021/11/11 11:50:05;;;;;;;50.35;33.08;;;13.70;78.40;;;;;;4994040;28;93236;-75
2021/11/11 11:52:34;;;;;;;50.55;32.70;;;13.70;78.70;;;;;;4994679;28;92903;-75
2021/11/11 12:00:16;;;;;;;55.60;34.45;;;13.70;78.40;;;;;;4992624;28;95508;-75
2021/11/11 12:03:10;;;;;;;54.55;35.97;;;13.70;78.40;;;;;;4993782;28;95279;-75
2021/11/11 12:11:33;;;;;;;53.70;36.47;;;13.60;78.30;;;;;;4994000;28;93125;-74
2021/11/11 12:39:49;;;;;;;50.40;34.60;;;14.10;78.50;;;;;;4995599;28;92767;-75
2021/11/11 12:42:38;;;;;;;56.00;36.90;;;14.20;78.40;;;;;;4997167;28;92515;-76
2021/11/11 12:45:19;;;;;;;55.30;36.88;;;14.20;78.50;;;;;;4996582;28;93056;-75
2021/11/11 12:47:58;;;;;;;54.85;35.63;;;14.20;78.50;;;;;;4995987;28;93076;-76
2021/11/11 12:50:37;;;;;;;59.08;37.20;;;14.20;78.50;;;;;;4996789;28;92411;-76
2021/11/11 12:53:19;;;;;;;58.72;36.97;;;14.30;78.40;;;;;;4997417;28;93028;-76
2021/11/11 12:55:55;;;;;;;58.72;36.88;;;14.30;78.40;;;;;;4995743;28;95362;-76
2021/11/11 12:58:30;;;;;;;54.10;36.22;;;14.30;78.30;;;;;;4996542;28;95245;-76
2021/11/11 13:01:04;;;;;;;52.03;36.75;;;14.40;78.10;;;;;;4995471;28;94235;-75
2021/11/11 13:03:53;;;;;;;55.15;36.28;;;14.40;77.80;;;;;;4996951;28;92431;-75
2021/11/11 13:06:35;;;;;;;49.33;35.00;;;14.50;77.60;;;;;;4996444;28;93300;-76
2021/11/11 13:09:09;;;;;;;47.75;35.03;;;14.50;77.50;;;;;;4996740;28;92908;-76
2021/11/11 13:11:40;;;;;;;45.13;33.00;;;14.40;77.60;;;;;;4996910;28;92670;-75
2021/11/11 13:14:20;;;;;;;52.40;35.65;;;14.50;77.40;;;;;;4997004;28;91739;-75
2021/11/11 13:16:53;;;;;;;49.60;33.63;;;14.50;77.40;;;;;;4995225;28;95882;-75
2021/11/11 13:19:35;;;;;;;52.03;36.75;;;14.50;77.30;;;;;;4996189;28;92803;-76
2021/11/11 13:22:13;;;;;;;55.72;36.92;;;14.40;77.50;;;;;;4993998;28;94838;-76
2021/11/11 13:24:59;;;;;;;51.60;35.63;;;14.40;77.60;;;;;;4996630;28;92545;-76
2021/11/11 16:27:16;;;;;;;71.60;42.17;;;13.00;80.30;;;;;;4997372;28;93099;-76
2021/11/11 16:29:43;;;;;;;75.82;43.53;;;12.90;80.40;;;;;;4997142;28;92772;-76
2021/11/11 16:32:11;;;;;;;71.65;44.40;;;12.90;80.40;;;;;;4997266;28;92509;-76
2021/11/11 16:34:38;;;;;;;74.40;44.03;;;13.00;80.40;;;;;;4997106;28;92426;-76
2021/11/11 16:37:08;;;;;;;70.20;40.40;;;12.90;80.40;;;;;;4989705;28;95479;-76
2021/11/11 16:39:36;;;;;;;70.60;42.70;;;12.90;80.30;;;;;;4978301;28;95347;-76
2021/11/11 16:42:03;;;;;;;71.63;42.83;;;12.90;80.30;;;;;;4977444;28;92363;-76
2021/11/11 16:44:30;;;;;;;74.85;44.10;;;12.90;80.30;;;;;;4977136;28;92462;-76
2021/11/11 16:46:59;;;;;;;65.30;41.35;;;12.90;80.30;;;;;;4977058;28;93369;-76
2021/11/11 16:49:27;;;;;;;70.65;44.45;;;12.90;80.40;;;;;;4976877;28;92787;-76
2021/11/11 16:51:54;;;;;;;75.20;47.00;;;12.90;80.30;;;;;;4976959;28;92408;-76
2021/11/11 16:54:21;;;;;;;67.18;43.22;;;12.90;80.50;;;;;;4977678;28;91717;-76
2021/11/11 16:56:48;;;;;;;66.35;42.88;;;12.80;80.40;;;;;;4976393;28;93064;-76